Time;durP1;ratioP1;P1;durP2;ratioP2;P2;SDS_P1;SDS_P2;PMS_P1;PMS_P2;Temp;Humidity;BMP_temperature;BMP_pressure;BME280_temperature;BME280_humidity;BME280_pressure;Samples;Min_cycle;Max_cycle;Signal;HPM_P1;HPM_P2
2021/04/15 00:01:32;;;;;;;5.45;3.55;;;4.90;90.90;;;;;;5049391;28;20007;-67
2021/04/15 00:03:58;;;;;;;5.65;3.40;;;4.90;90.80;;;;;;5049331;28;20540;-68
2021/04/15 00:06:27;;;;;;;;;;;4.90;90.80;;;;;;5049829;28;20033;-68
2021/04/15 00:08:54;;;;;;;4.85;3.47;;;4.90;91.00;;;;;;5049524;28;20027;-68
2021/04/15 00:11:31;;;;;;;5.35;3.25;;;4.90;91.10;;;;;;5049332;28;20065;-68
2021/04/15 00:13:58;;;;;;;5.80;3.78;;;4.90;91.10;;;;;;5048994;28;20029;-67
2021/04/15 00:16:27;;;;;;;7.35;4.25;;;4.90;91.00;;;;;;5049144;28;20040;-68
2021/04/15 00:18:53;;;;;;;6.07;3.85;;;4.90;91.00;;;;;;5048978;28;20025;-67
2021/04/15 00:21:20;;;;;;;5.75;4.03;;;4.90;91.00;;;;;;5049072;28;20036;-68
2021/04/15 00:23:46;;;;;;;6.20;4.20;;;4.90;91.10;;;;;;5048718;28;20059;-67
2021/04/15 00:26:13;;;;;;;;;;;4.80;91.00;;;;;;5049328;28;20029;-68
2021/04/15 00:28:38;;;;;;;;;;;4.90;91.10;;;;;;5048083;28;20016;-68
2021/04/15 00:31:05;;;;;;;5.07;3.40;;;4.80;91.10;;;;;;5048940;28;19999;-68
2021/04/15 00:33:31;;;;;;;5.03;3.85;;;4.80;91.10;;;;;;5048798;28;20075;-67
2021/04/15 00:35:56;;;;;;;;;;;4.80;91.00;;;;;;5049207;28;20033;-67
2021/04/15 00:38:25;;;;;;;4.82;3.33;;;4.80;91.00;;;;;;5048812;28;20388;-67
2021/04/15 00:40:52;;;;;;;4.68;3.50;;;4.80;90.90;;;;;;5047193;28;20032;-67
2021/04/15 00:43:20;;;;;;;4.97;2.70;;;4.80;90.90;;;;;;5048765;28;20150;-68
2021/04/15 00:45:47;;;;;;;7.07;3.67;;;4.80;90.80;;;;;;5048287;28;20045;-68
2021/04/15 00:48:15;;;;;;;3.63;2.78;;;4.80;90.90;;;;;;5048484;28;20124;-68
2021/04/15 00:50:54;;;;;;;4.80;3.13;;;4.80;90.90;;;;;;5048662;28;20028;-68
2021/04/15 00:53:24;;;;;;;6.03;3.10;;;4.80;90.90;;;;;;5048521;28;20029;-68
2021/04/15 00:55:50;;;;;;;4.40;3.33;;;4.80;90.90;;;;;;5048551;28;20021;-67
2021/04/15 00:58:16;;;;;;;;;;;4.80;90.80;;;;;;5049028;28;20037;-68
2021/04/15 01:00:42;;;;;;;4.25;3.08;;;4.80;90.80;;;;;;5048539;28;20296;-68
2021/04/15 01:03:08;;;;;;;4.53;3.00;;;4.80;90.60;;;;;;5048541;28;20029;-66
2021/04/15 01:05:37;;;;;;;;;;;4.70;90.70;;;;;;5048253;28;20033;-68
2021/04/15 01:08:04;;;;;;;6.43;3.53;;;4.70;90.70;;;;;;5048343;28;19924;-66
2021/04/15 01:10:33;;;;;;;5.18;3.53;;;4.70;90.70;;;;;;5048366;28;20045;-67
2021/04/15 01:13:33;;;;;;;4.80;3.67;;;4.70;90.70;;;;;;5048269;28;20041;-66
2021/04/15 01:16:20;;;;;;;5.63;3.30;;;4.70;90.50;;;;;;5048185;28;20481;-66
2021/04/15 01:18:48;;;;;;;;;;;4.70;90.50;;;;;;5048679;28;20135;-66
2021/04/15 01:21:38;;;;;;;8.32;3.78;;;4.70;90.60;;;;;;5048362;28;19909;-66
2021/04/15 01:24:09;;;;;;;5.45;3.90;;;4.70;90.70;;;;;;5048237;28;20053;-65
2021/04/15 01:27:18;;;;;;;4.65;3.35;;;4.60;90.70;;;;;;5048294;28;20025;-66
2021/04/15 01:29:49;;;;;;;4.80;3.47;;;4.60;90.80;;;;;;5048102;28;20036;-66
2021/04/15 01:32:50;;;;;;;7.68;4.13;;;4.70;90.90;;;;;;5047015;28;20029;-66
2021/04/15 01:35:28;;;;;;;7.00;4.72;;;4.60;90.80;;;;;;5018428;28;20455;-66
2021/04/15 01:38:26;;;;;;;6.72;4.40;;;4.70;91.00;;;;;;5047990;28;20056;-66
2021/04/15 01:40:55;;;;;;;6.57;4.72;;;4.60;91.00;;;;;;5028313;28;20558;-66
2021/04/15 01:43:44;;;;;;;8.52;4.35;;;4.60;91.00;;;;;;5047961;28;20037;-65
2021/04/15 01:46:10;;;;;;;6.30;4.53;;;4.60;91.00;;;;;;5046530;28;20033;-66
2021/04/15 01:48:40;;;;;;;;;;;4.60;91.00;;;;;;5048484;28;20444;-67
2021/04/15 01:51:18;;;;;;;6.38;4.00;;;4.60;91.00;;;;;;5047832;28;20007;-66
2021/04/15 01:53:54;;;;;;;5.00;3.72;;;4.60;91.00;;;;;;5047603;28;20032;-66
2021/04/15 01:56:32;;;;;;;5.20;4.00;;;4.50;91.00;;;;;;5047863;28;20066;-66
2021/04/15 01:59:29;;;;;;;6.50;5.18;;;4.50;91.00;;;;;;5046424;28;20356;-66
2021/04/15 02:02:01;;;;;;;6.32;4.30;;;4.50;91.10;;;;;;5046974;28;20041;-66
2021/04/15 02:04:34;;;;;;;8.80;3.75;;;4.50;91.10;;;;;;5047643;28;20037;-66
2021/04/15 02:07:07;;;;;;;5.90;4.03;;;4.50;91.10;;;;;;5047795;28;20477;-66
2021/04/15 02:09:34;;;;;;;5.55;4.15;;;4.40;91.10;;;;;;5047723;28;20040;-65
2021/04/15 02:12:12;;;;;;;6.35;4.20;;;4.50;91.10;;;;;;5046282;28;20033;-66
2021/04/15 02:14:41;;;;;;;6.65;4.47;;;4.50;91.20;;;;;;5047622;28;20036;-66
2021/04/15 02:17:10;;;;;;;7.53;4.32;;;4.50;91.20;;;;;;5048610;28;20033;-65
2021/04/15 02:19:47;;;;;;;6.95;4.88;;;4.50;91.30;;;;;;5051370;28;20025;-66
2021/04/15 02:22:27;;;;;;;6.10;4.65;;;4.50;91.20;;;;;;5051202;28;20420;-66
2021/04/15 02:25:02;;;;;;;6.18;3.80;;;4.50;91.10;;;;;;5049728;28;20086;-66
2021/04/15 02:27:39;;;;;;;5.20;3.85;;;4.50;91.10;;;;;;5051134;28;20489;-66
2021/04/15 02:30:22;;;;;;;6.00;4.68;;;4.50;91.10;;;;;;5051255;28;20037;-65
2021/04/15 02:33:18;;;;;;;6.40;4.65;;;4.50;91.10;;;;;;5050967;28;20041;-66
2021/04/15 02:35:52;;;;;;;7.47;4.78;;;4.50;91.20;;;;;;5031166;28;20045;-66
2021/04/15 02:38:25;;;;;;;6.13;4.85;;;4.40;91.20;;;;;;5051031;28;20032;-66
2021/04/15 02:40:59;;;;;;;9.27;5.00;;;4.40;91.20;;;;;;5049753;28;20094;-66
2021/04/15 02:43:48;;;;;;;8.18;5.90;;;4.40;91.10;;;;;;5050767;28;20637;-66
2021/04/15 02:46:39;;;;;;;10.57;5.70;;;4.30;90.90;;;;;;5050778;28;20040;-67
2021/04/15 02:49:08;;;;;;;10.68;6.50;;;4.30;91.00;;;;;;5050689;28;20119;-66
2021/04/15 02:51:55;;;;;;;11.18;6.88;;;4.30;91.20;;;;;;5050700;28;20029;-66
2021/04/15 02:54:29;;;;;;;10.73;6.97;;;4.30;91.30;;;;;;5050610;28;20029;-66
2021/04/15 02:57:05;;;;;;;8.75;6.63;;;4.30;91.40;;;;;;5050737;28;20029;-67
2021/04/15 02:59:41;;;;;;;;;;;4.20;91.50;;;;;;5051131;28;20032;-66
2021/04/15 03:02:10;;;;;;;11.30;7.68;;;4.20;91.50;;;;;;5050546;28;19915;-65
2021/04/15 03:04:39;;;;;;;12.25;7.55;;;4.20;91.70;;;;;;5050366;28;20097;-66
2021/04/15 03:07:06;;;;;;;12.50;8.10;;;4.20;91.70;;;;;;5050352;28;20094;-66
2021/04/15 03:09:36;;;;;;;10.65;7.70;;;4.20;91.80;;;;;;5050310;28;20489;-66
2021/04/15 03:12:07;;;;;;;10.05;8.02;;;4.10;91.80;;;;;;5050301;28;20106;-66
2021/04/15 03:14:42;;;;;;;10.35;7.47;;;4.10;91.90;;;;;;5048957;28;20029;-66
2021/04/15 03:17:09;;;;;;;11.52;9.25;;;4.10;92.10;;;;;;5050170;28;20029;-66
2021/04/15 03:19:40;;;;;;;12.27;8.75;;;4.10;92.10;;;;;;5050292;28;20121;-66
2021/04/15 03:22:14;;;;;;;12.85;8.40;;;4.10;92.20;;;;;;5050142;28;20033;-65
2021/04/15 03:24:44;;;;;;;11.43;9.18;;;4.10;92.30;;;;;;5050084;28;20029;-66
2021/04/15 03:27:19;;;;;;;12.38;8.23;;;4.10;92.30;;;;;;5050040;28;20037;-66
2021/04/15 03:30:19;;;;;;;9.50;8.18;;;4.10;92.40;;;;;;5049134;28;20631;-67
2021/04/15 03:33:03;;;;;;;10.48;7.97;;;4.10;92.40;;;;;;5040918;28;20048;-66
2021/04/15 03:35:48;;;;;;;11.75;8.90;;;4.10;92.40;;;;;;5049765;28;20029;-66
2021/04/15 03:38:46;;;;;;;11.23;8.50;;;4.10;92.40;;;;;;5049919;28;20667;-66
2021/04/15 03:41:17;;;;;;;11.70;9.02;;;4.10;92.50;;;;;;5049839;28;20520;-66
2021/04/15 03:43:51;;;;;;;12.73;9.02;;;4.00;92.60;;;;;;5049439;28;20115;-66
2021/04/15 03:46:44;;;;;;;11.77;9.25;;;4.00;92.50;;;;;;5049676;28;20052;-66
2021/04/15 03:49:34;;;;;;;12.45;9.13;;;4.00;92.90;;;;;;5049694;28;20041;-67
2021/04/15 03:52:08;;;;;;;12.57;9.10;;;4.00;92.60;;;;;;5049545;28;20029;-66
2021/04/15 03:54:40;;;;;;;11.45;8.68;;;4.00;92.70;;;;;;5048222;28;20033;-66
2021/04/15 03:57:11;;;;;;;11.50;8.85;;;4.00;93.00;;;;;;5048197;28;20059;-66
2021/04/15 04:00:03;;;;;;;12.27;9.32;;;4.00;92.70;;;;;;5049322;28;20033;-66
2021/04/15 04:02:35;;;;;;;12.18;9.70;;;4.00;92.70;;;;;;5041903;28;20040;-67
2021/04/15 04:05:27;;;;;;;12.40;9.60;;;4.00;92.80;;;;;;5049361;28;20100;-66
2021/04/15 04:08:01;;;;;;;12.40;9.77;;;4.00;92.80;;;;;;5049128;28;20124;-67
2021/04/15 04:10:33;;;;;;;13.40;9.90;;;4.00;92.90;;;;;;5049251;28;20421;-67
2021/04/15 04:13:29;;;;;;;13.50;10.57;;;4.10;92.80;;;;;;5049205;28;20039;-66
2021/04/15 04:15:58;;;;;;;12.40;9.73;;;4.10;92.90;;;;;;5049126;28;20025;-66
2021/04/15 04:18:29;;;;;;;11.75;9.50;;;4.10;93.00;;;;;;5049003;28;20032;-66
2021/04/15 04:21:05;;;;;;;15.20;9.75;;;4.10;93.00;;;;;;5049022;28;20162;-66
2021/04/15 04:24:08;;;;;;;13.57;10.45;;;4.10;93.00;;;;;;5048996;28;20540;-66
2021/04/15 04:26:38;;;;;;;11.82;10.20;;;4.10;93.00;;;;;;5048908;28;20436;-67
2021/04/15 04:29:19;;;;;;;12.32;11.00;;;4.20;93.00;;;;;;5048868;28;20428;-66
2021/04/15 04:31:48;;;;;;;11.70;9.45;;;4.20;92.90;;;;;;5048660;28;20025;-67
2021/04/15 04:34:17;;;;;;;13.02;9.60;;;4.20;92.80;;;;;;5047449;28;20405;-66
2021/04/15 04:36:45;;;;;;;12.45;9.40;;;4.30;92.70;;;;;;5048842;28;20028;-66
2021/04/15 04:39:14;;;;;;;16.77;10.32;;;4.30;92.70;;;;;;5048781;28;20087;-67
2021/04/15 04:41:53;;;;;;;21.08;11.32;;;4.40;92.70;;;;;;5047630;28;20036;-66
2021/04/15 04:44:36;;;;;;;13.82;10.38;;;4.40;92.50;;;;;;5048334;28;20063;-67
2021/04/15 04:47:30;;;;;;;13.48;10.73;;;4.40;92.40;;;;;;5048561;28;20095;-67
2021/04/15 04:50:34;;;;;;;14.10;10.95;;;4.40;92.10;;;;;;5027339;28;20045;-66
2021/04/15 04:53:05;;;;;;;13.77;10.00;;;4.50;91.80;;;;;;5048465;28;20021;-65
2021/04/15 04:55:46;;;;;;;14.18;10.15;;;4.50;91.50;;;;;;5048612;28;20032;-66
2021/04/15 04:58:15;;;;;;;14.48;9.27;;;4.50;91.30;;;;;;5048459;28;20485;-66
2021/04/15 05:00:47;;;;;;;13.32;10.00;;;4.60;91.00;;;;;;5048404;28;20025;-67
2021/04/15 05:03:22;;;;;;;11.82;8.95;;;4.60;90.60;;;;;;5048386;28;20082;-66
2021/04/15 05:05:49;;;;;;;13.18;9.60;;;4.60;90.50;;;;;;5048208;28;20063;-67
2021/04/15 05:08:24;;;;;;;12.75;9.30;;;4.70;90.30;;;;;;5046924;28;20131;-67
2021/04/15 05:10:56;;;;;;;15.05;9.52;;;4.70;90.00;;;;;;5048333;28;20033;-67
2021/04/15 05:13:25;;;;;;;13.30;8.93;;;4.80;89.80;;;;;;5048310;28;20397;-67
2021/04/15 05:15:52;;;;;;;12.68;10.02;;;4.80;89.10;;;;;;5048091;28;20512;-67
2021/04/15 05:18:21;;;;;;;14.52;10.52;;;4.80;88.10;;;;;;5048210;28;20013;-66
2021/04/15 05:20:48;;;;;;;13.57;9.32;;;4.90;88.00;;;;;;5048334;28;20037;-67
2021/04/15 05:23:25;;;;;;;12.13;8.80;;;4.90;87.80;;;;;;5047131;28;20059;-67
2021/04/15 05:26:15;;;;;;;14.50;10.10;;;5.00;88.20;;;;;;5048127;28;20335;-66
2021/04/15 05:28:42;;;;;;;13.57;9.38;;;5.00;87.50;;;;;;5048136;28;20494;-67
2021/04/15 05:31:12;;;;;;;12.07;10.02;;;5.10;86.90;;;;;;5048057;28;20021;-67
2021/04/15 05:33:38;;;;;;;12.68;9.93;;;5.10;86.90;;;;;;5047851;28;20037;-66
2021/04/15 05:36:24;;;;;;;17.38;10.82;;;5.20;86.60;;;;;;5048006;28;20033;-66
2021/04/15 05:38:53;;;;;;;13.23;10.07;;;5.30;86.40;;;;;;5048086;28;20025;-66
2021/04/15 05:41:32;;;;;;;16.38;9.77;;;5.30;85.60;;;;;;5048155;28;20267;-66
2021/04/15 05:44:28;;;;;;;14.15;8.88;;;5.40;85.40;;;;;;5047789;28;20047;-66
2021/04/15 05:46:54;;;;;;;13.73;9.45;;;5.50;84.60;;;;;;5047872;28;20041;-66
2021/04/15 05:49:48;;;;;;;11.55;8.88;;;5.60;84.20;;;;;;5048020;28;20041;-66
2021/04/15 05:52:41;;;;;;;14.10;8.02;;;5.70;83.50;;;;;;5031067;28;20140;-66
2021/04/15 05:55:26;;;;;;;12.55;9.10;;;5.80;82.90;;;;;;5051786;28;20029;-65
2021/04/15 05:57:59;;;;;;;12.57;8.73;;;5.90;82.80;;;;;;5051613;28;20029;-67
2021/04/15 06:01:04;;;;;;;17.63;10.80;;;6.10;82.90;;;;;;5051649;28;20067;-66
2021/04/15 06:03:57;;;;;;;13.05;9.63;;;6.30;82.20;;;;;;5045568;28;20043;-66
2021/04/15 06:06:29;;;;;;;12.68;8.55;;;6.40;80.60;;;;;;5051730;28;20136;-66
2021/04/15 06:08:55;;;;;;;12.35;8.00;;;6.60;80.60;;;;;;5050142;28;20041;-66
2021/04/15 06:11:42;;;;;;;11.43;8.27;;;6.70;80.00;;;;;;5050310;28;20021;-66
2021/04/15 06:14:12;;;;;;;;;;;6.90;77.80;;;;;;5049700;28;20067;-67
2021/04/15 06:16:44;;;;;;;11.23;8.45;;;7.00;77.20;;;;;;5048138;28;20255;-66
2021/04/15 06:19:22;;;;;;;11.43;7.88;;;7.10;76.50;;;;;;5051372;28;20029;-66
2021/04/15 06:21:52;;;;;;;13.38;9.20;;;7.40;75.50;;;;;;5050993;28;20374;-66
2021/04/15 06:24:29;;;;;;;11.68;8.57;;;7.60;74.70;;;;;;5050144;28;20389;-66
2021/04/15 06:26:58;;;;;;;10.85;8.25;;;7.80;73.90;;;;;;5050033;28;20055;-66
2021/04/15 06:29:44;;;;;;;11.40;8.75;;;8.00;72.90;;;;;;5051162;28;20119;-66
2021/04/15 06:32:31;;;;;;;14.18;9.73;;;8.20;72.10;;;;;;5049843;28;20028;-66
2021/04/15 06:34:57;;;;;;;13.63;9.85;;;8.50;70.30;;;;;;5051157;28;20454;-66
2021/04/15 06:37:36;;;;;;;13.43;9.15;;;8.60;70.60;;;;;;5050647;28;20033;-66
2021/04/15 06:40:34;;;;;;;12.80;8.18;;;8.90;69.60;;;;;;5050734;28;20452;-66
2021/04/15 06:43:24;;;;;;;11.52;8.52;;;9.00;69.30;;;;;;5049760;28;20116;-66
2021/04/15 06:46:07;;;;;;;12.27;8.70;;;9.30;68.70;;;;;;5050418;28;20045;-67
2021/04/15 06:48:52;;;;;;;10.80;9.20;;;9.30;67.60;;;;;;5050832;28;20037;-66
2021/04/15 06:51:20;;;;;;;16.52;9.20;;;9.20;68.40;;;;;;5049980;28;20085;-66
2021/04/15 06:54:17;;;;;;;11.88;7.65;;;9.20;67.70;;;;;;5050425;28;20095;-66
2021/04/15 06:57:27;;;;;;;10.93;8.50;;;9.20;66.50;;;;;;5050649;28;20494;-66
2021/04/15 07:00:13;;;;;;;11.65;7.97;;;9.40;66.50;;;;;;5050516;28;20033;-66
2021/04/15 07:02:57;;;;;;;10.15;7.10;;;9.40;64.60;;;;;;5050616;28;20037;-66
2021/04/15 07:05:27;;;;;;;10.27;8.02;;;9.20;65.40;;;;;;5049975;28;20025;-66
2021/04/15 07:07:56;;;;;;;13.18;9.05;;;9.10;66.30;;;;;;5050114;28;20928;-67
2021/04/15 07:10:52;;;;;;;10.63;7.50;;;9.00;67.80;;;;;;5049764;28;20028;-67
2021/04/15 07:13:46;;;;;;;13.52;8.38;;;8.90;67.40;;;;;;5049606;28;20029;-67
2021/04/15 07:16:33;;;;;;;15.07;8.93;;;8.80;66.70;;;;;;5047264;28;20497;-68
2021/04/15 07:19:41;;;;;;;14.15;7.75;;;8.60;67.40;;;;;;5049730;28;20029;-67
2021/04/15 07:22:22;;;;;;;;;;;8.70;67.20;;;;;;5050878;28;20545;-67
2021/04/15 07:25:33;;;;;;;10.40;7.97;;;8.60;67.00;;;;;;5050113;28;19909;-68
2021/04/15 07:28:33;;;;;;;11.48;8.45;;;8.60;67.50;;;;;;5048517;28;20037;-67
2021/04/15 07:31:10;;;;;;;12.18;8.30;;;8.50;67.70;;;;;;5050081;28;20082;-67
2021/04/15 07:33:52;;;;;;;10.93;8.18;;;8.40;67.10;;;;;;5048508;28;20044;-67
2021/04/15 07:37:08;;;;;;;10.93;8.32;;;8.50;68.20;;;;;;5049049;28;20389;-67
2021/04/15 07:39:54;;;;;;;11.85;7.60;;;8.50;68.50;;;;;;5007506;28;20048;-67
2021/04/15 07:42:34;;;;;;;12.57;8.68;;;8.40;67.50;;;;;;5007676;28;20556;-66
2021/04/15 07:45:33;;;;;;;15.15;9.38;;;8.30;67.80;;;;;;5037619;28;20052;-66
2021/04/15 07:48:55;;;;;;;11.35;9.18;;;8.30;68.30;;;;;;5048853;28;20405;-66
2021/04/15 07:52:04;;;;;;;12.45;9.13;;;8.30;69.00;;;;;;5047488;28;20032;-66
2021/04/15 07:54:41;;;;;;;15.18;8.50;;;8.30;68.90;;;;;;5008447;28;20510;-65
2021/04/15 07:57:25;;;;;;;;;;;8.50;68.00;;;;;;5041055;28;20048;-66
2021/04/15 08:00:05;;;;;;;12.80;8.77;;;8.60;67.90;;;;;;5055416;28;19943;-66
2021/04/15 08:03:03;;;;;;;12.75;8.75;;;8.70;68.60;;;;;;5043881;28;20116;-66
2021/04/15 08:05:57;;;;;;;12.68;9.65;;;9.00;68.20;;;;;;5042398;28;20037;-66
2021/04/15 08:08:51;;;;;;;14.13;9.27;;;9.20;66.60;;;;;;5041711;28;20222;-65
2021/04/15 08:11:52;;;;;;;11.57;9.13;;;9.40;65.90;;;;;;5052572;28;20634;-67
2021/04/15 08:14:35;;;;;;;10.77;8.27;;;9.60;64.70;;;;;;5047171;28;20051;-68
2021/04/15 08:17:21;;;;;;;12.43;8.65;;;9.70;63.50;;;;;;5046691;28;20036;-66
2021/04/15 08:20:31;;;;;;;9.77;7.57;;;9.80;64.30;;;;;;5052596;28;20097;-67
2021/04/15 08:23:18;;;;;;;9.25;7.82;;;10.10;62.60;;;;;;5046383;28;20501;-66
2021/04/15 08:26:08;;;;;;;14.15;8.43;;;10.50;61.10;;;;;;5045160;28;20104;-67
2021/04/15 08:29:04;;;;;;;13.10;8.00;;;10.60;60.60;;;;;;5045275;28;20455;-67
2021/04/15 08:31:48;;;;;;;11.35;7.22;;;10.70;59.50;;;;;;5046167;28;20029;-66
2021/04/15 08:34:40;;;;;;;11.32;7.53;;;10.90;59.10;;;;;;5048787;28;20050;-66
2021/04/15 08:37:22;;;;;;;13.27;7.22;;;11.10;56.00;;;;;;5047476;28;20029;-67
2021/04/15 08:39:58;;;;;;;11.32;7.93;;;11.00;54.70;;;;;;5048651;28;20104;-67
2021/04/15 08:42:33;;;;;;;9.53;6.80;;;10.80;56.50;;;;;;5048623;28;20054;-66
2021/04/15 08:45:30;;;;;;;9.00;6.18;;;10.80;57.50;;;;;;5048441;28;20064;-68
2021/04/15 08:48:18;;;;;;;12.33;7.30;;;11.00;54.90;;;;;;5047244;28;20052;-67
2021/04/15 08:51:20;;;;;;;10.10;5.90;;;10.90;55.90;;;;;;5047332;28;20492;-67
2021/04/15 08:54:04;;;;;;;9.07;6.32;;;10.80;55.30;;;;;;5048414;28;20523;-66
2021/04/15 08:56:47;;;;;;;6.90;5.07;;;10.80;57.20;;;;;;5048534;28;20032;-66
2021/04/15 08:59:37;;;;;;;5.25;3.70;;;10.90;56.20;;;;;;5048391;28;20051;-66
2021/04/15 09:02:12;;;;;;;4.70;2.80;;;10.90;55.60;;;;;;5048201;28;20029;-66
2021/04/15 09:05:05;;;;;;;4.82;2.70;;;11.00;54.70;;;;;;5048304;28;20036;-66
2021/04/15 09:07:56;;;;;;;8.68;5.10;;;10.80;53.70;;;;;;5046918;28;20025;-67
2021/04/15 09:10:38;;;;;;;7.70;5.00;;;10.40;54.70;;;;;;5048376;28;20095;-66
2021/04/15 09:13:37;;;;;;;7.50;5.47;;;10.40;56.50;;;;;;5047310;28;20028;-66
2021/04/15 09:16:17;;;;;;;10.68;6.00;;;10.30;56.40;;;;;;5047933;28;20413;-66
2021/04/15 09:19:00;;;;;;;8.60;6.30;;;10.00;57.90;;;;;;5048447;28;20033;-66
2021/04/15 09:21:48;;;;;;;7.57;5.25;;;9.90;58.80;;;;;;5048303;28;20032;-65
2021/04/15 09:24:18;;;;;;;6.40;4.38;;;9.80;59.90;;;;;;5047172;28;20099;-65
2021/04/15 09:26:47;;;;;;;8.75;4.35;;;9.90;60.40;;;;;;5047590;28;20139;-65
2021/04/15 09:29:24;;;;;;;10.23;5.28;;;9.90;60.00;;;;;;5051407;28;20542;-65
2021/04/15 09:31:56;;;;;;;7.38;4.90;;;9.70;60.20;;;;;;5051438;28;20033;-65
2021/04/15 09:34:52;;;;;;;8.88;5.93;;;9.80;59.60;;;;;;5051244;28;20069;-64
2021/04/15 09:37:27;;;;;;;10.52;8.73;;;9.70;60.20;;;;;;5051269;28;20087;-65
2021/04/15 09:39:57;;;;;;;11.63;6.75;;;9.80;60.10;;;;;;5051145;28;20053;-65
2021/04/15 09:42:46;;;;;;;8.02;6.13;;;9.90;58.90;;;;;;5049724;28;20045;-64
2021/04/15 09:45:18;;;;;;;7.97;5.82;;;10.00;58.80;;;;;;5051128;28;20106;-65
2021/04/15 09:47:55;;;;;;;7.25;4.85;;;10.10;58.50;;;;;;5050501;28;20073;-65
2021/04/15 09:50:28;;;;;;;7.18;5.82;;;10.20;59.50;;;;;;5051136;28;20281;-65
2021/04/15 09:53:05;;;;;;;7.25;5.03;;;10.60;56.40;;;;;;5050893;28;20045;-65
2021/04/15 09:55:51;;;;;;;9.00;5.55;;;10.80;58.00;;;;;;5051103;28;20519;-64
2021/04/15 09:58:34;;;;;;;12.38;6.55;;;11.00;56.00;;;;;;5049515;28;20104;-65
2021/04/15 10:01:13;;;;;;;7.07;5.70;;;11.40;55.80;;;;;;5050778;28;20045;-65
2021/04/15 10:04:13;;;;;;;9.60;5.47;;;11.60;55.60;;;;;;5050325;28;20037;-65
2021/04/15 10:06:48;;;;;;;8.05;5.82;;;11.90;54.80;;;;;;5050726;28;20031;-65
2021/04/15 10:09:35;;;;;;;8.45;5.53;;;11.60;54.00;;;;;;5050507;28;20497;-65
2021/04/15 10:12:42;;;;;;;7.45;4.90;;;11.60;54.90;;;;;;5050046;28;20041;-65
2021/04/15 10:15:15;;;;;;;8.52;4.97;;;11.30;55.30;;;;;;5037430;28;20045;-64
2021/04/15 10:17:52;;;;;;;21.10;5.40;;;11.10;55.90;;;;;;5049893;28;20033;-65
2021/04/15 10:20:28;;;;;;;11.13;5.43;;;10.90;57.10;;;;;;5049551;28;20122;-66
2021/04/15 10:23:24;;;;;;;6.53;5.70;;;10.80;58.70;;;;;;5049344;28;20471;-65
2021/04/15 10:25:56;;;;;;;6.72;5.28;;;10.90;59.50;;;;;;5047897;28;20041;-66
2021/04/15 10:28:39;;;;;;;8.07;5.22;;;10.80;59.10;;;;;;5046547;28;20041;-66
2021/04/15 10:31:42;;;;;;;6.82;4.88;;;10.70;60.50;;;;;;5049058;28;20127;-65
2021/04/15 10:34:24;;;;;;;7.05;5.13;;;10.60;60.30;;;;;;5046952;28;20878;-66
2021/04/15 10:37:15;;;;;;;6.95;5.65;;;10.50;60.50;;;;;;5049154;28;20029;-66
2021/04/15 10:39:53;;;;;;;9.27;5.97;;;10.40;60.60;;;;;;5048938;28;20040;-66
2021/04/15 10:42:41;;;;;;;7.82;6.13;;;10.50;60.70;;;;;;5049795;28;20102;-67
2021/04/15 10:45:15;;;;;;;7.60;6.13;;;10.60;61.20;;;;;;5049225;28;20092;-66
2021/04/15 10:48:13;;;;;;;8.13;6.45;;;10.70;61.10;;;;;;5048817;28;20123;-65
2021/04/15 10:50:50;;;;;;;10.00;6.45;;;10.80;60.80;;;;;;5047784;28;20037;-65
2021/04/15 10:53:43;;;;;;;7.32;5.00;;;10.80;60.00;;;;;;5047263;28;20033;-65
2021/04/15 10:56:43;;;;;;;8.27;5.82;;;10.80;58.00;;;;;;5049061;28;20503;-67
2021/04/15 10:59:15;;;;;;;6.78;5.13;;;10.70;58.80;;;;;;5046300;28;20033;-68
2021/04/15 11:01:46;;;;;;;8.80;6.13;;;10.70;60.50;;;;;;5048614;28;20136;-67
2021/04/15 11:04:12;;;;;;;12.10;5.40;;;10.70;60.00;;;;;;5048286;28;20045;-66
2021/04/15 11:06:40;;;;;;;;;;;10.70;61.10;;;;;;5047677;28;20413;-66
2021/04/15 11:09:31;;;;;;;11.52;5.18;;;10.70;62.70;;;;;;5048620;28;20396;-67
2021/04/15 11:12:01;;;;;;;6.57;4.53;;;10.60;61.40;;;;;;5048675;28;20517;-67
2021/04/15 11:14:39;;;;;;;12.15;4.60;;;10.60;62.00;;;;;;5048793;28;20100;-68
2021/04/15 11:17:36;;;;;;;4.97;3.78;;;10.40;61.80;;;;;;5049028;28;20384;-67
2021/04/15 11:20:21;;;;;;;4.68;3.22;;;10.30;61.90;;;;;;5049336;28;20176;-68
2021/04/15 11:23:26;;;;;;;4.55;3.47;;;10.10;62.00;;;;;;5050394;28;20036;-67
2021/04/15 11:25:53;;;;;;;4.50;2.80;;;10.00;62.70;;;;;;5049777;28;20056;-68
2021/04/15 11:28:22;;;;;;;4.47;3.10;;;9.90;62.50;;;;;;5049176;28;20033;-65
2021/04/15 11:31:10;;;;;;;5.28;2.50;;;9.90;63.80;;;;;;5049688;28;20545;-67
2021/04/15 11:34:04;;;;;;;3.55;2.20;;;10.10;62.70;;;;;;5048678;28;20099;-65
2021/04/15 11:36:33;;;;;;;4.57;3.10;;;10.10;62.60;;;;;;5048694;28;20039;-66
2021/04/15 11:39:04;;;;;;;4.78;2.65;;;10.20;63.00;;;;;;5049721;28;20033;-68
2021/04/15 11:41:40;;;;;;;11.25;3.92;;;10.40;61.60;;;;;;5047473;28;20032;-66
2021/04/15 11:44:10;;;;;;;4.03;2.83;;;10.70;60.40;;;;;;5049282;28;20501;-67
2021/04/15 11:46:47;;;;;;;4.30;2.58;;;11.00;59.40;;;;;;5049395;28;20025;-66
2021/04/15 11:49:20;;;;;;;4.70;2.30;;;11.30;58.70;;;;;;5047884;28;20044;-66
2021/04/15 11:52:12;;;;;;;4.00;2.55;;;11.50;56.00;;;;;;5048885;28;20036;-65
2021/04/15 11:54:48;;;;;;;7.80;2.80;;;11.70;55.20;;;;;;5056309;28;20370;-66
2021/04/15 11:57:19;;;;;;;4.60;2.42;;;11.90;55.10;;;;;;5049322;28;20029;-68
2021/04/15 11:59:57;;;;;;;7.53;2.30;;;11.90;55.10;;;;;;5048890;28;20657;-65
2021/04/15 12:02:33;;;;;;;9.45;3.90;;;11.80;55.60;;;;;;5047445;28;20031;-67
2021/04/15 12:05:20;;;;;;;4.00;2.77;;;11.70;56.70;;;;;;5049036;28;20025;-65
2021/04/15 12:07:54;;;;;;;5.47;2.80;;;11.70;57.50;;;;;;5046798;28;20295;-66
2021/04/15 12:10:26;;;;;;;3.40;2.30;;;11.80;56.20;;;;;;5048649;28;20052;-67
2021/04/15 12:12:59;;;;;;;5.07;2.85;;;11.70;55.70;;;;;;5048131;28;20753;-66
2021/04/15 12:15:36;;;;;;;4.20;2.55;;;11.80;55.10;;;;;;5049111;28;20029;-67
2021/04/15 12:18:13;;;;;;;5.05;3.33;;;11.80;54.70;;;;;;5049004;28;20078;-67
2021/04/15 12:21:04;;;;;;;2.55;1.88;;;11.70;53.30;;;;;;5049122;28;20111;-67
2021/04/15 12:23:59;;;;;;;4.60;2.83;;;11.70;53.60;;;;;;5046830;28;20037;-67
2021/04/15 12:26:52;;;;;;;7.72;5.15;;;11.50;54.40;;;;;;5047599;28;20781;-67
2021/04/15 12:29:41;;;;;;;4.53;2.50;;;11.40;54.40;;;;;;5049007;28;20045;-67
2021/04/15 12:32:29;;;;;;;4.85;3.05;;;11.10;53.70;;;;;;5048357;28;20037;-66
2021/04/15 12:35:23;;;;;;;6.32;3.03;;;11.10;53.90;;;;;;5048824;28;20528;-67
2021/04/15 12:38:08;;;;;;;5.90;2.53;;;10.90;55.50;;;;;;5041553;28;20106;-67
2021/04/15 12:40:38;;;;;;;5.68;3.05;;;11.00;57.90;;;;;;5048720;28;20068;-68
2021/04/15 12:43:25;;;;;;;3.97;2.35;;;10.90;58.40;;;;;;5048708;28;20086;-68
2021/04/15 12:46:04;;;;;;;4.72;2.80;;;10.50;59.60;;;;;;5048548;28;20572;-68
2021/04/15 12:48:50;;;;;;;3.97;2.30;;;10.10;60.80;;;;;;5048839;28;20834;-67
2021/04/15 12:51:23;;;;;;;6.32;2.33;;;10.00;62.60;;;;;;5047284;28;20078;-68
2021/04/15 12:53:50;;;;;;;4.00;1.67;;;10.00;62.50;;;;;;5046989;28;20086;-68
2021/04/15 12:56:21;;;;;;;3.03;1.83;;;9.90;62.40;;;;;;5048397;28;20087;-68
2021/04/15 12:58:48;;;;;;;2.38;1.70;;;10.00;62.00;;;;;;5048330;28;20094;-67
2021/04/15 13:01:15;;;;;;;4.15;1.70;;;9.90;62.40;;;;;;5047764;28;20679;-67
2021/04/15 13:03:45;;;;;;;4.40;2.00;;;10.00;62.20;;;;;;5048145;28;20048;-68
2021/04/15 13:06:11;;;;;;;3.20;1.88;;;10.00;62.10;;;;;;5048482;28;20032;-68
2021/04/15 13:08:55;;;;;;;;;;;10.00;62.00;;;;;;5048818;28;20055;-68
2021/04/15 13:11:21;;;;;;;3.72;2.20;;;10.10;63.00;;;;;;5048416;28;19939;-67
2021/04/15 13:13:53;;;;;;;;;;;10.10;62.20;;;;;;5048494;28;20056;-68
2021/04/15 13:16:42;;;;;;;2.97;1.95;;;10.00;61.60;;;;;;5048593;28;19915;-68
2021/04/15 13:19:10;;;;;;;6.75;2.67;;;9.90;62.10;;;;;;5048194;28;20031;-68
2021/04/15 13:21:41;;;;;;;4.50;2.80;;;9.90;62.70;;;;;;5048233;28;20025;-69
2021/04/15 13:24:41;;;;;;;2.95;1.70;;;9.70;64.00;;;;;;5048131;28;20045;-68
2021/04/15 13:27:35;;;;;;;2.10;1.30;;;9.60;64.10;;;;;;5048056;28;20532;-68
2021/04/15 13:30:24;;;;;;;23.15;11.27;;;9.60;65.40;;;;;;5048015;28;20379;-68
2021/04/15 13:33:22;;;;;;;24.58;15.65;;;9.50;66.30;;;;;;5026361;28;20123;-67
2021/04/15 13:36:00;;;;;;;3.88;2.30;;;9.40;67.10;;;;;;5046490;28;20068;-68
2021/04/15 13:38:32;;;;;;;8.10;3.45;;;9.40;67.20;;;;;;5048049;28;20091;-68
2021/04/15 13:41:03;;;;;;;3.92;2.38;;;9.40;67.10;;;;;;5048004;28;20044;-68
2021/04/15 13:43:43;;;;;;;5.25;3.63;;;9.30;65.50;;;;;;5048002;28;20037;-68
2021/04/15 13:46:30;;;;;;;7.38;3.00;;;9.10;65.50;;;;;;5047962;28;20040;-68
2021/04/15 13:49:44;;;;;;;3.25;2.08;;;8.90;66.40;;;;;;5047917;28;20390;-68
2021/04/15 13:52:15;;;;;;;6.63;3.03;;;8.80;66.70;;;;;;5047593;28;20053;-68
2021/04/15 13:54:45;;;;;;;7.38;3.92;;;8.80;69.20;;;;;;5047883;28;20523;-68
2021/04/15 13:57:15;;;;;;;5.45;3.33;;;8.70;72.10;;;;;;5047910;28;20078;-68
2021/04/15 14:00:03;;;;;;;6.82;4.50;;;8.40;73.70;;;;;;5047616;28;20627;-68